Terminal Aerodrome Forecast
Issued by NWS

Home | Current Version | Previous Version | Text Only | Print | Product List | Glossary On
Versions: 1 2 3 4 5 6 7 8 9 10 11 12 13 14 15 16 17 18 19 20 21 22 23 24 25 26 27 28 29 30 31 32 33 34 35 36 37 38 39 40 41 42 43 44 45 46 47 48 49 50
000
FTUS45 KBOU 020257 AAC
TAFAPA
TAF AMD
KAPA 020257Z 0203/0224 18009KT P6SM SCT120 SCT200
     FM020400 22012KT P6SM VCSH BKN110 BKN200
     FM020700 20009KT P6SM SCT120 SCT200
     FM021600 28006KT P6SM FEW120
     FM022100 VRB05KT P6SM FEW090 SCT120=

USA.gov is the U.S. government's official web portal to all federal, state and local government web resources and services.